Time;durP1;ratioP1;P1;durP2;ratioP2;P2;SDS_P1;SDS_P2;PMS_P1;PMS_P2;Temp;Humidity;BMP_temperature;BMP_pressure;BME280_temperature;BME280_humidity;BME280_pressure;Samples;Min_cycle;Max_cycle;Signal;HPM_P1;HPM_P2
2021/03/17 00:00:55;;;;;;;4.03;1.70;;;4.20;99.90;;;;;;5084453;28;20259;-62
2021/03/17 00:03:22;;;;;;;2.60;1.60;;;4.10;99.90;;;;;;5094536;28;20240;-62
2021/03/17 00:05:49;;;;;;;3.00;1.57;;;4.20;99.90;;;;;;5094785;28;20211;-62
2021/03/17 00:08:17;;;;;;;2.23;1.80;;;4.10;99.90;;;;;;5094491;28;20234;-62
2021/03/17 00:10:47;;;;;;;4.13;1.70;;;4.10;99.90;;;;;;5094712;28;20292;-62
2021/03/17 00:13:15;;;;;;;3.67;2.00;;;4.10;99.90;;;;;;5094831;28;20185;-63
2021/03/17 00:15:44;;;;;;;4.10;1.80;;;4.00;99.90;;;;;;5094802;28;20209;-63
2021/03/17 00:18:12;;;;;;;5.27;2.20;;;3.90;99.90;;;;;;5094194;28;20218;-60
2021/03/17 00:20:40;;;;;;;3.43;1.80;;;3.90;99.90;;;;;;5094571;28;20265;-64
2021/03/17 00:23:09;;;;;;;5.17;2.00;;;3.80;99.90;;;;;;5094575;28;20239;-61
2021/03/17 00:25:37;;;;;;;4.20;1.97;;;3.80;99.90;;;;;;5094299;28;20205;-63
2021/03/17 00:28:08;;;;;;;6.27;1.93;;;3.70;99.90;;;;;;5094193;28;20220;-62
2021/03/17 00:30:37;;;;;;;3.67;2.10;;;3.80;99.90;;;;;;5094471;28;20200;-62
2021/03/17 00:33:07;;;;;;;4.20;2.30;;;3.80;99.90;;;;;;5094002;28;20230;-63
2021/03/17 00:35:35;;;;;;;3.43;1.90;;;3.80;99.90;;;;;;5094392;28;20563;-62
2021/03/17 00:38:02;;;;;;;6.30;2.27;;;3.90;99.90;;;;;;5094240;28;20224;-63
2021/03/17 00:40:29;;;;;;;2.77;2.00;;;3.80;99.90;;;;;;5094352;28;20572;-61
2021/03/17 00:42:56;;;;;;;4.63;1.80;;;3.70;99.90;;;;;;5093786;28;20733;-62
2021/03/17 00:45:24;;;;;;;2.90;1.70;;;3.60;99.90;;;;;;5094263;28;20313;-62
2021/03/17 00:47:51;;;;;;;3.97;2.00;;;3.60;99.90;;;;;;5093637;28;20654;-62
2021/03/17 00:50:20;;;;;;;3.80;2.07;;;3.60;99.90;;;;;;5094295;28;20217;-62
2021/03/17 00:52:54;;;;;;;4.97;2.00;;;3.40;99.90;;;;;;5093783;28;20236;-62
2021/03/17 00:55:20;;;;;;;2.60;1.80;;;3.30;99.90;;;;;;5093117;28;20254;-64
2021/03/17 00:57:47;;;;;;;4.70;1.80;;;3.20;99.90;;;;;;5093629;28;20699;-62
2021/03/17 01:00:16;;;;;;;5.60;2.20;;;3.20;99.90;;;;;;5093880;28;20204;-62
2021/03/17 01:02:44;;;;;;;7.83;2.40;;;3.10;99.90;;;;;;5093654;28;20773;-62
2021/03/17 01:05:12;;;;;;;4.43;1.93;;;3.20;99.90;;;;;;5093636;28;20200;-63
2021/03/17 01:07:39;;;;;;;3.00;1.60;;;3.00;99.90;;;;;;5093678;28;20655;-63
2021/03/17 01:10:09;;;;;;;2.30;1.70;;;3.10;99.90;;;;;;5093801;28;20294;-62
2021/03/17 01:12:36;;;;;;;5.27;2.00;;;3.00;99.90;;;;;;5085442;28;20200;-63
2021/03/17 01:15:05;;;;;;;3.47;1.67;;;3.20;99.90;;;;;;5073206;28;20247;-62
2021/03/17 01:17:32;;;;;;;3.13;1.80;;;3.20;99.90;;;;;;5072959;28;20244;-63
2021/03/17 01:19:59;;;;;;;3.90;1.77;;;3.10;99.90;;;;;;5073196;28;20209;-62
2021/03/17 01:22:26;;;;;;;6.07;2.20;;;3.10;99.90;;;;;;5073122;28;20232;-63
2021/03/17 01:24:53;;;;;;;5.63;2.03;;;3.10;99.90;;;;;;5073223;28;20209;-62
2021/03/17 01:27:20;;;;;;;3.93;2.27;;;3.10;99.90;;;;;;5072946;28;20271;-63
2021/03/17 01:29:47;;;;;;;3.60;1.80;;;3.10;99.90;;;;;;5073058;28;20258;-62
2021/03/17 01:32:14;;;;;;;5.03;2.00;;;3.10;99.90;;;;;;5072625;28;20208;-62
2021/03/17 01:34:41;;;;;;;3.43;2.03;;;3.00;99.90;;;;;;5073023;28;20291;-63
2021/03/17 01:37:10;;;;;;;6.47;2.60;;;3.10;99.90;;;;;;5073094;28;20196;-63
2021/03/17 01:39:37;;;;;;;6.67;2.47;;;3.10;99.90;;;;;;5072945;28;20647;-63
2021/03/17 01:42:04;;;;;;;2.47;2.17;;;3.00;99.90;;;;;;5072691;28;20309;-61
2021/03/17 01:44:31;;;;;;;6.00;2.10;;;3.00;99.90;;;;;;5072872;28;20250;-63
2021/03/17 01:46:58;;;;;;;3.53;2.20;;;3.00;99.90;;;;;;5072715;28;20585;-62
2021/03/17 01:49:25;;;;;;;6.23;2.47;;;3.10;99.90;;;;;;5072928;28;20564;-62
2021/03/17 01:51:52;;;;;;;3.70;1.90;;;3.20;99.90;;;;;;5072509;28;20248;-62
2021/03/17 01:54:20;;;;;;;5.60;2.20;;;3.30;99.90;;;;;;5072520;28;20272;-61
2021/03/17 01:56:46;;;;;;;2.90;1.90;;;3.30;99.90;;;;;;5076228;28;20201;-62
2021/03/17 01:59:14;;;;;;;3.87;2.20;;;3.10;99.90;;;;;;5092494;28;20220;-62
2021/03/17 02:01:41;;;;;;;4.17;1.90;;;3.10;99.90;;;;;;5092235;28;20626;-62
2021/03/17 02:04:09;;;;;;;10.30;2.33;;;3.20;99.90;;;;;;5092648;28;20668;-62
2021/03/17 02:06:36;;;;;;;3.63;2.90;;;3.20;99.90;;;;;;5092279;28;20651;-62
2021/03/17 02:09:03;;;;;;;3.77;2.20;;;3.20;99.90;;;;;;5092640;28;20287;-62
2021/03/17 02:11:30;;;;;;;5.43;2.33;;;3.20;99.90;;;;;;5092895;28;20291;-62
2021/03/17 02:14:26;;;;;;;6.10;2.10;;;3.20;99.90;;;;;;5092739;28;20261;-63
2021/03/17 02:16:58;;;;;;;3.10;2.20;;;3.20;99.90;;;;;;5092451;28;20705;-62
2021/03/17 02:19:49;;;;;;;5.57;2.13;;;3.30;99.90;;;;;;5092519;28;20224;-63
2021/03/17 02:22:30;;;;;;;4.27;2.30;;;3.30;99.90;;;;;;5092572;28;20863;-62
2021/03/17 02:25:03;;;;;;;4.23;2.30;;;3.20;99.90;;;;;;5092452;28;20612;-62
2021/03/17 02:28:08;;;;;;;5.43;2.17;;;3.20;99.90;;;;;;5092482;28;20272;-61
2021/03/17 02:30:55;;;;;;;3.83;2.10;;;3.30;99.90;;;;;;5092526;28;20620;-62
2021/03/17 02:33:47;;;;;;;5.00;2.50;;;3.30;99.90;;;;;;5092461;28;20616;-62
2021/03/17 02:36:19;;;;;;;6.40;2.40;;;3.30;99.90;;;;;;5092559;28;20186;-62
2021/03/17 02:38:48;;;;;;;5.80;2.10;;;3.30;99.90;;;;;;5092689;28;20598;-62
2021/03/17 02:41:22;;;;;;;4.67;2.20;;;3.40;99.90;;;;;;5092571;28;20305;-62
2021/03/17 02:43:54;;;;;;;3.10;2.27;;;3.40;99.90;;;;;;5092636;28;20188;-62
2021/03/17 02:46:24;;;;;;;6.07;2.43;;;3.30;99.90;;;;;;5091961;28;20286;-61
2021/03/17 02:48:59;;;;;;;5.27;2.20;;;3.40;99.90;;;;;;5092307;28;20185;-62
2021/03/17 02:51:32;;;;;;;4.60;2.63;;;3.30;99.90;;;;;;5092835;28;20212;-62
2021/03/17 02:54:01;;;;;;;6.93;2.47;;;3.20;99.90;;;;;;5092355;28;20232;-62
2021/03/17 02:56:32;;;;;;;4.50;2.77;;;3.20;99.90;;;;;;5095904;28;20256;-63
2021/03/17 02:59:01;;;;;;;4.57;2.20;;;3.20;99.90;;;;;;5102233;28;20236;-63
2021/03/17 03:01:30;;;;;;;6.57;2.40;;;3.20;99.90;;;;;;5103642;28;20230;-62
2021/03/17 03:04:03;;;;;;;3.50;1.80;;;3.20;99.90;;;;;;5092451;28;20200;-61
2021/03/17 03:06:31;;;;;;;6.87;2.43;;;3.30;99.90;;;;;;5092548;28;20236;-62
2021/03/17 03:09:00;;;;;;;4.47;2.03;;;3.30;99.90;;;;;;5092088;28;20671;-61
2021/03/17 03:11:28;;;;;;;4.13;2.00;;;3.20;99.90;;;;;;5092312;28;20260;-61
2021/03/17 03:13:57;;;;;;;5.33;2.30;;;3.30;99.90;;;;;;5092308;28;20230;-62
2021/03/17 03:16:25;;;;;;;5.90;2.10;;;3.30;99.90;;;;;;5091833;28;20297;-62
2021/03/17 03:18:53;;;;;;;6.63;2.30;;;3.30;99.90;;;;;;5095464;28;20221;-62
2021/03/17 03:21:22;;;;;;;7.87;3.57;;;3.20;99.90;;;;;;5095648;28;20244;-61
2021/03/17 03:23:50;;;;;;;4.30;2.47;;;3.20;99.90;;;;;;5095786;28;20231;-62
2021/03/17 03:26:18;;;;;;;5.00;2.17;;;3.30;99.90;;;;;;5095746;28;20232;-62
2021/03/17 03:28:47;;;;;;;3.70;2.10;;;3.20;99.90;;;;;;5095077;28;20196;-62
2021/03/17 03:31:15;;;;;;;4.07;2.07;;;3.20;99.90;;;;;;5095313;28;20230;-62
2021/03/17 03:33:42;;;;;;;4.83;2.20;;;3.30;99.90;;;;;;5095343;28;20243;-61
2021/03/17 03:36:09;;;;;;;4.23;2.40;;;3.20;99.90;;;;;;5095550;28;20197;-61
2021/03/17 03:38:37;;;;;;;4.27;2.13;;;3.20;99.90;;;;;;5095123;28;20225;-61
2021/03/17 03:41:05;;;;;;;2.70;2.23;;;3.20;99.90;;;;;;5095188;28;20720;-62
2021/03/17 03:43:33;;;;;;;7.13;2.13;;;3.20;99.90;;;;;;5095153;28;20239;-61
2021/03/17 03:46:00;;;;;;;5.07;2.30;;;3.20;99.90;;;;;;5095160;28;20224;-61
2021/03/17 03:48:28;;;;;;;3.67;2.17;;;3.20;99.90;;;;;;5095440;28;20197;-62
2021/03/17 03:50:55;;;;;;;3.80;2.17;;;3.20;99.90;;;;;;5095324;28;20204;-62
2021/03/17 03:53:36;;;;;;;4.47;2.20;;;3.20;99.90;;;;;;5095062;28;20637;-61
2021/03/17 03:56:06;;;;;;;5.27;2.00;;;3.10;99.90;;;;;;5095294;28;20192;-62
2021/03/17 03:58:38;;;;;;;4.87;2.13;;;3.20;99.90;;;;;;5094932;28;20222;-61
2021/03/17 04:01:08;;;;;;;5.07;2.83;;;3.10;99.90;;;;;;5094835;28;20191;-62
2021/03/17 04:03:41;;;;;;;3.93;2.07;;;3.10;99.90;;;;;;5095032;28;20211;-62
2021/03/17 04:06:11;;;;;;;3.73;2.50;;;3.00;99.90;;;;;;5094946;28;20184;-62
2021/03/17 04:08:43;;;;;;;5.17;2.57;;;3.00;99.90;;;;;;5095007;28;20200;-62
2021/03/17 04:11:13;;;;;;;4.07;2.73;;;3.10;99.90;;;;;;5094598;28;20277;-61
2021/03/17 04:13:41;;;;;;;5.83;2.00;;;3.10;99.90;;;;;;5094957;28;20237;-61
2021/03/17 04:16:11;;;;;;;5.20;2.17;;;3.00;99.90;;;;;;5094242;28;20219;-62
2021/03/17 04:18:42;;;;;;;4.63;2.37;;;3.10;99.90;;;;;;5094461;28;20694;-62
2021/03/17 04:21:15;;;;;;;5.70;2.23;;;3.10;99.90;;;;;;5094340;28;20222;-62
2021/03/17 04:23:44;;;;;;;3.93;1.97;;;3.10;99.90;;;;;;5094695;28;20307;-62
2021/03/17 04:26:12;;;;;;;10.63;3.27;;;3.10;99.90;;;;;;5094561;28;20296;-61
2021/03/17 04:28:41;;;;;;;4.73;2.40;;;3.10;99.90;;;;;;5094472;28;20620;-61
2021/03/17 04:31:10;;;;;;;5.13;2.17;;;3.10;99.90;;;;;;5093990;28;20229;-62
2021/03/17 04:33:39;;;;;;;5.50;2.07;;;3.10;99.90;;;;;;5094231;28;20292;-62
2021/03/17 04:36:07;;;;;;;5.60;2.20;;;3.10;99.90;;;;;;5094091;28;20251;-62
2021/03/17 04:38:35;;;;;;;5.53;2.57;;;3.10;99.90;;;;;;5094284;28;20224;-62
2021/03/17 04:41:03;;;;;;;4.63;1.87;;;3.00;99.90;;;;;;5094204;28;20230;-62
2021/03/17 04:43:31;;;;;;;5.10;2.40;;;3.00;99.90;;;;;;5093929;28;20213;-63
2021/03/17 04:46:01;;;;;;;4.17;2.03;;;3.10;99.90;;;;;;5094155;28;20236;-62
2021/03/17 04:48:29;;;;;;;4.83;2.40;;;3.10;99.90;;;;;;5094218;28;20187;-61
2021/03/17 04:50:58;;;;;;;5.13;2.37;;;3.20;99.90;;;;;;5093685;28;20200;-61
2021/03/17 04:53:25;;;;;;;3.37;2.23;;;3.10;99.90;;;;;;5093746;28;20255;-62
2021/03/17 04:55:52;;;;;;;5.00;2.10;;;3.10;99.90;;;;;;5093672;28;20729;-62
2021/03/17 04:58:23;;;;;;;6.67;2.67;;;3.10;99.90;;;;;;5093348;28;20231;-61
2021/03/17 05:00:52;;;;;;;6.57;2.27;;;3.10;99.90;;;;;;5093387;28;20279;-62
2021/03/17 05:03:22;;;;;;;6.87;2.80;;;3.20;99.90;;;;;;5093322;28;20870;-61
2021/03/17 05:05:51;;;;;;;5.70;2.10;;;3.20;99.90;;;;;;5093923;28;20605;-62
2021/03/17 05:08:20;;;;;;;4.70;2.17;;;3.20;99.90;;;;;;5093883;28;20291;-61
2021/03/17 05:10:48;;;;;;;5.80;2.30;;;3.10;99.90;;;;;;5093349;28;20577;-62
2021/03/17 05:13:16;;;;;;;4.97;2.57;;;3.00;99.90;;;;;;5093348;28;20203;-61
2021/03/17 05:15:45;;;;;;;5.37;2.00;;;2.90;99.90;;;;;;5093550;28;20196;-61
2021/03/17 05:18:16;;;;;;;4.87;2.40;;;2.90;99.90;;;;;;5093583;28;20204;-62
2021/03/17 05:20:46;;;;;;;4.57;2.20;;;2.90;99.90;;;;;;5093131;28;20736;-62
2021/03/17 05:23:14;;;;;;;5.43;2.43;;;2.90;99.90;;;;;;5093736;28;20620;-62
2021/03/17 05:25:42;;;;;;;5.83;2.13;;;2.90;99.90;;;;;;5093627;28;20239;-62
2021/03/17 05:28:08;;;;;;;5.17;2.47;;;3.00;99.90;;;;;;5091295;28;20200;-62
2021/03/17 05:30:38;;;;;;;5.97;2.20;;;3.00;99.90;;;;;;5072569;28;20205;-61
2021/03/17 05:33:08;;;;;;;4.80;2.33;;;3.00;99.90;;;;;;5073095;28;20554;-62
2021/03/17 05:35:37;;;;;;;6.00;2.40;;;2.80;99.90;;;;;;5072984;28;20220;-61
2021/03/17 05:38:05;;;;;;;6.73;2.60;;;2.90;99.90;;;;;;5073104;28;20629;-62
2021/03/17 05:40:32;;;;;;;5.07;2.60;;;2.90;99.90;;;;;;5072643;28;20291;-62
2021/03/17 05:43:01;;;;;;;4.90;2.40;;;3.00;99.90;;;;;;5072588;28;20261;-62
2021/03/17 05:45:28;;;;;;;8.17;2.40;;;3.00;99.90;;;;;;5072891;28;20293;-62
2021/03/17 05:48:07;;;;;;;5.37;2.53;;;2.90;99.90;;;;;;5072738;28;20189;-62
2021/03/17 05:50:37;;;;;;;5.67;2.53;;;2.90;99.90;;;;;;5073033;28;20200;-62
2021/03/17 05:53:06;;;;;;;4.67;2.20;;;2.90;99.90;;;;;;5072375;28;20286;-61
2021/03/17 05:55:33;;;;;;;4.60;2.87;;;2.90;99.90;;;;;;5072769;28;20204;-62
2021/03/17 05:58:00;;;;;;;3.83;2.30;;;2.90;99.90;;;;;;5085776;28;20253;-62
2021/03/17 06:00:28;;;;;;;6.40;2.37;;;2.90;99.90;;;;;;5092917;28;20216;-62
2021/03/17 06:02:56;;;;;;;4.70;2.47;;;2.90;99.90;;;;;;5093021;28;20216;-62
2021/03/17 06:05:24;;;;;;;8.00;2.70;;;2.90;99.90;;;;;;5092530;28;20663;-64
2021/03/17 06:08:00;;;;;;;6.13;3.40;;;2.80;99.90;;;;;;5092633;28;20363;-63
2021/03/17 06:10:27;;;;;;;5.10;2.93;;;2.60;99.90;;;;;;5093058;28;20260;-62
2021/03/17 06:12:58;;;;;;;9.13;3.73;;;2.60;99.90;;;;;;5092183;28;20299;-62
2021/03/17 06:15:27;;;;;;;5.80;3.60;;;2.50;99.90;;;;;;5092707;28;20221;-63
2021/03/17 06:17:57;;;;;;;5.07;3.97;;;2.30;99.90;;;;;;5092775;28;20276;-62
2021/03/17 06:20:25;;;;;;;5.03;4.10;;;2.30;99.90;;;;;;5092841;28;20211;-62
2021/03/17 06:22:52;;;;;;;6.07;3.80;;;2.20;99.90;;;;;;5092516;28;20652;-62
2021/03/17 06:25:20;;;;;;;7.07;4.30;;;2.20;99.90;;;;;;5092996;28;20235;-62
2021/03/17 06:27:48;;;;;;;6.67;4.33;;;2.10;99.90;;;;;;5092250;28;20229;-62
2021/03/17 06:30:15;;;;;;;7.20;4.77;;;2.20;99.90;;;;;;5092410;28;20199;-63
2021/03/17 06:32:43;;;;;;;8.90;5.70;;;2.10;99.90;;;;;;5092683;28;20196;-62
2021/03/17 06:35:19;;;;;;;10.67;7.10;;;2.00;99.90;;;;;;5092486;28;20207;-61
2021/03/17 06:37:50;;;;;;;9.63;7.03;;;2.00;99.90;;;;;;5092584;28;20180;-62
2021/03/17 06:40:25;;;;;;;8.27;6.57;;;2.10;99.90;;;;;;5092423;28;20223;-62
2021/03/17 06:42:53;;;;;;;9.03;6.50;;;2.10;99.90;;;;;;5092135;28;20188;-62
2021/03/17 06:45:30;;;;;;;8.27;6.10;;;2.00;99.90;;;;;;5092176;28;20676;-61
2021/03/17 06:47:57;;;;;;;7.30;5.50;;;2.10;99.90;;;;;;5092445;28;20279;-62
2021/03/17 06:50:29;;;;;;;7.47;5.03;;;2.20;99.90;;;;;;5092268;28;20559;-61
2021/03/17 06:52:56;;;;;;;5.47;4.97;;;2.20;99.90;;;;;;5085503;28;20225;-62
2021/03/17 06:55:24;;;;;;;9.67;5.40;;;2.30;99.90;;;;;;5085062;28;20303;-61
2021/03/17 06:57:52;;;;;;;7.67;5.13;;;2.40;99.90;;;;;;5090729;28;20203;-61
2021/03/17 07:00:30;;;;;;;7.67;5.47;;;2.40;99.90;;;;;;5080350;28;20657;-61
2021/03/17 07:02:59;;;;;;;8.33;5.30;;;2.30;99.90;;;;;;5082542;28;20188;-62
2021/03/17 07:05:38;;;;;;;7.63;4.90;;;2.30;99.90;;;;;;5083917;28;20659;-61
2021/03/17 07:08:07;;;;;;;10.00;5.17;;;2.30;99.90;;;;;;5088348;28;20204;-61
2021/03/17 07:10:57;;;;;;;7.27;4.67;;;2.30;99.90;;;;;;5093387;28;20208;-60
2021/03/17 07:13:26;;;;;;;8.20;4.93;;;2.30;99.90;;;;;;5095170;28;20252;-61
2021/03/17 07:15:54;;;;;;;7.30;4.07;;;2.40;99.90;;;;;;5095983;28;20257;-61
2021/03/17 07:18:25;;;;;;;5.37;4.20;;;2.50;99.90;;;;;;5095559;28;20253;-60
2021/03/17 07:20:55;;;;;;;5.47;4.00;;;2.60;99.90;;;;;;5090617;28;20204;-61
2021/03/17 07:23:34;;;;;;;7.80;4.20;;;2.40;99.90;;;;;;5088817;28;20203;-62
2021/03/17 07:26:14;;;;;;;6.40;4.07;;;2.40;99.90;;;;;;5084789;28;20196;-61
2021/03/17 07:28:58;;;;;;;6.77;3.67;;;2.60;99.90;;;;;;5096968;28;20287;-61
2021/03/17 07:31:27;;;;;;;6.57;3.83;;;2.50;99.90;;;;;;5086322;28;20625;-61
2021/03/17 07:33:54;;;;;;;5.27;3.20;;;2.50;99.90;;;;;;5095647;28;20295;-62
2021/03/17 07:36:33;;;;;;;10.87;3.63;;;2.70;99.90;;;;;;5095612;28;20621;-61
2021/03/17 07:39:06;;;;;;;6.57;3.47;;;2.80;99.90;;;;;;5089749;28;20257;-62
2021/03/17 07:41:35;;;;;;;6.30;3.40;;;2.90;99.90;;;;;;5074809;28;20276;-62
2021/03/17 07:44:04;;;;;;;6.27;3.13;;;3.00;99.90;;;;;;5074905;28;20212;-61
2021/03/17 07:46:32;;;;;;;5.00;2.90;;;3.00;99.90;;;;;;5074625;28;20614;-61
2021/03/17 07:49:00;;;;;;;6.43;3.17;;;3.10;99.90;;;;;;5074890;28;20207;-62
2021/03/17 07:51:27;;;;;;;4.57;2.87;;;3.20;99.90;;;;;;5079598;28;20239;-63
2021/03/17 07:53:55;;;;;;;5.53;3.00;;;3.20;99.90;;;;;;5083593;28;20257;-64
2021/03/17 07:56:24;;;;;;;4.10;2.97;;;3.30;99.90;;;;;;5080837;28;20205;-62
2021/03/17 07:58:53;;;;;;;5.63;3.77;;;3.40;99.90;;;;;;5082887;28;20256;-63
2021/03/17 08:01:22;;;;;;;7.37;3.43;;;3.40;99.90;;;;;;5083030;28;20285;-63
2021/03/17 08:03:50;;;;;;;4.17;2.90;;;3.60;99.90;;;;;;5080534;28;20346;-63
2021/03/17 08:06:19;;;;;;;6.30;3.27;;;3.80;99.90;;;;;;5081788;28;20225;-62
2021/03/17 08:08:47;;;;;;;5.80;3.50;;;3.80;99.90;;;;;;5083747;28;20205;-62
2021/03/17 08:11:16;;;;;;;5.73;3.33;;;3.90;99.90;;;;;;5084017;28;20205;-63
2021/03/17 08:13:45;;;;;;;7.83;3.17;;;4.00;99.90;;;;;;5084609;28;20714;-63
2021/03/17 08:16:17;;;;;;;7.63;3.00;;;4.00;99.90;;;;;;5094135;28;20622;-62
2021/03/17 08:18:47;;;;;;;5.27;2.60;;;4.10;99.90;;;;;;5080974;28;20288;-65
2021/03/17 08:21:35;;;;;;;6.67;2.60;;;4.00;99.90;;;;;;5084398;28;20809;-59
2021/03/17 08:24:02;;;;;;;7.93;3.03;;;4.00;99.90;;;;;;5090959;28;20216;-60
2021/03/17 08:26:44;;;;;;;7.47;3.53;;;3.90;99.90;;;;;;5089663;28;20236;-60
2021/03/17 08:29:14;;;;;;;4.60;3.30;;;3.80;99.90;;;;;;5071735;28;20298;-60
2021/03/17 08:31:50;;;;;;;6.43;4.13;;;3.80;99.90;;;;;;5083777;28;20296;-60
2021/03/17 08:34:25;;;;;;;8.60;4.40;;;3.80;99.90;;;;;;5087736;28;20201;-60
2021/03/17 08:36:54;;;;;;;7.63;4.87;;;3.70;99.90;;;;;;5079342;28;20245;-60
2021/03/17 08:39:41;;;;;;;10.80;5.73;;;3.60;99.90;;;;;;5079145;28;20268;-62
2021/03/17 08:42:09;;;;;;;7.47;6.13;;;3.80;99.90;;;;;;5070156;28;20206;-60
2021/03/17 08:44:49;;;;;;;9.77;5.60;;;3.60;99.90;;;;;;5070466;28;20204;-61
2021/03/17 08:47:23;;;;;;;6.40;5.20;;;3.40;99.90;;;;;;5070554;28;20211;-63
2021/03/17 08:49:51;;;;;;;8.03;5.40;;;3.60;99.90;;;;;;5070223;28;20216;-62
2021/03/17 08:52:19;;;;;;;9.30;5.47;;;3.70;99.90;;;;;;5070218;28;20204;-60
2021/03/17 08:54:58;;;;;;;8.10;5.17;;;3.80;99.90;;;;;;5069873;28;20237;-60
2021/03/17 08:58:06;;;;;;;7.77;5.13;;;3.80;99.90;;;;;;5078278;28;20642;-60
2021/03/17 09:00:48;;;;;;;9.97;5.03;;;3.80;99.90;;;;;;5090356;28;20234;-61
2021/03/17 09:03:40;;;;;;;6.13;4.97;;;3.90;99.90;;;;;;5090492;28;20185;-59
2021/03/17 09:06:09;;;;;;;9.17;4.70;;;4.00;99.90;;;;;;5089880;28;20194;-59
2021/03/17 09:08:47;;;;;;;7.87;4.77;;;4.00;99.90;;;;;;5089698;28;20210;-62
2021/03/17 09:11:59;;;;;;;5.53;4.20;;;4.00;99.90;;;;;;5080472;28;20698;-60
2021/03/17 09:14:34;;;;;;;8.93;4.77;;;4.00;99.90;;;;;;5082474;28;20202;-62
2021/03/17 09:17:23;;;;;;;10.03;4.37;;;4.30;99.90;;;;;;5076107;28;20241;-61
2021/03/17 09:20:14;;;;;;;9.10;4.67;;;4.50;99.90;;;;;;5081698;28;20229;-61
2021/03/17 09:22:47;;;;;;;6.07;4.33;;;4.40;99.90;;;;;;5089859;28;20221;-61
2021/03/17 09:25:26;;;;;;;5.83;4.23;;;4.50;99.90;;;;;;5089671;28;20216;-61
2021/03/17 09:28:02;;;;;;;8.00;4.40;;;4.60;99.90;;;;;;5089875;28;20227;-62
2021/03/17 09:30:34;;;;;;;8.83;4.70;;;4.70;99.90;;;;;;5090068;28;20359;-61
2021/03/17 09:33:13;;;;;;;10.23;4.03;;;4.90;99.90;;;;;;5090020;28;20213;-62
2021/03/17 09:35:45;;;;;;;8.60;4.23;;;4.80;99.90;;;;;;5089519;28;20282;-63
2021/03/17 09:38:15;;;;;;;8.63;3.90;;;4.60;99.90;;;;;;5089887;28;20285;-63
2021/03/17 09:40:46;;;;;;;7.73;4.30;;;4.70;99.90;;;;;;5082668;28;20226;-63
2021/03/17 09:43:31;;;;;;;7.70;3.90;;;4.90;99.90;;;;;;5071789;28;20210;-64
2021/03/17 09:45:59;;;;;;;6.37;3.77;;;5.10;99.90;;;;;;5085409;28;20670;-60
2021/03/17 09:48:27;;;;;;;6.43;3.60;;;5.00;99.90;;;;;;5089869;28;20220;-59
2021/03/17 09:51:00;;;;;;;9.63;4.50;;;4.90;99.90;;;;;;5089188;28;20220;-63
2021/03/17 09:53:27;;;;;;;7.30;3.80;;;4.80;99.90;;;;;;5089564;28;20230;-62
2021/03/17 09:55:54;;;;;;;7.40;3.87;;;4.90;99.90;;;;;;5089451;28;20200;-60
2021/03/17 09:58:22;;;;;;;6.23;4.10;;;5.10;99.90;;;;;;5089717;28;20380;-60
2021/03/17 10:00:50;;;;;;;8.63;4.37;;;5.20;99.90;;;;;;5082143;28;20220;-60
2021/03/17 10:03:20;;;;;;;9.03;4.40;;;5.20;99.90;;;;;;5069579;28;20261;-63
2021/03/17 10:05:48;;;;;;;6.17;4.10;;;5.30;99.90;;;;;;5068838;28;20515;-61
2021/03/17 10:08:16;;;;;;;5.90;4.13;;;5.30;99.90;;;;;;5068971;28;20242;-61
2021/03/17 10:10:43;;;;;;;10.37;4.63;;;5.20;99.90;;;;;;5068363;28;20289;-60
2021/03/17 10:13:14;;;;;;;6.40;3.90;;;5.30;99.90;;;;;;5069152;28;20261;-60
2021/03/17 10:15:41;;;;;;;8.23;3.90;;;5.20;99.90;;;;;;5069185;28;20218;-60
2021/03/17 10:18:15;;;;;;;9.37;4.30;;;5.00;99.90;;;;;;5068933;28;20231;-63
2021/03/17 10:20:43;;;;;;;8.00;4.23;;;4.70;99.90;;;;;;5086875;28;20246;-62
2021/03/17 10:23:10;;;;;;;5.47;3.70;;;4.80;99.90;;;;;;5078444;28;20238;-61
2021/03/17 10:25:38;;;;;;;8.27;4.30;;;4.80;99.90;;;;;;5068579;28;20218;-62
2021/03/17 10:28:09;;;;;;;8.43;3.87;;;4.90;99.90;;;;;;5072859;28;20225;-61
2021/03/17 10:30:38;;;;;;;6.97;4.20;;;4.90;99.90;;;;;;5073033;28;20182;-60
2021/03/17 10:33:09;;;;;;;8.80;4.40;;;4.90;99.90;;;;;;5072637;28;20206;-61
2021/03/17 10:35:37;;;;;;;10.07;4.30;;;5.00;99.90;;;;;;5072684;28;20192;-62
2021/03/17 10:38:06;;;;;;;11.40;4.97;;;5.10;99.90;;;;;;5072630;28;20701;-60
2021/03/17 10:40:35;;;;;;;9.07;4.13;;;5.00;99.90;;;;;;5072614;28;20264;-62
2021/03/17 10:43:09;;;;;;;5.60;3.87;;;5.20;99.90;;;;;;5072265;28;20588;-60
2021/03/17 10:45:44;;;;;;;7.93;4.80;;;5.50;99.90;;;;;;5072803;28;20184;-60
2021/03/17 10:48:12;;;;;;;11.07;5.90;;;5.80;99.90;;;;;;5072513;28;20277;-61
2021/03/17 10:50:41;;;;;;;10.37;4.17;;;5.80;99.90;;;;;;5072603;28;20209;-62
2021/03/17 10:53:18;;;;;;;10.23;4.63;;;5.80;99.90;;;;;;5072512;28;20235;-62
2021/03/17 10:55:46;;;;;;;12.33;5.53;;;5.60;99.90;;;;;;5072349;28;20194;-62
2021/03/17 10:58:15;;;;;;;10.80;5.20;;;5.40;99.90;;;;;;5072381;28;20262;-62
2021/03/17 11:00:44;;;;;;;10.30;5.47;;;5.30;99.90;;;;;;5072009;28;21111;-62
2021/03/17 11:03:24;;;;;;;12.33;5.47;;;5.40;99.90;;;;;;5072647;28;20208;-62
2021/03/17 11:05:51;;;;;;;9.97;4.83;;;5.40;99.90;;;;;;5072317;28;20207;-58
2021/03/17 11:08:19;;;;;;;8.30;5.07;;;5.40;99.90;;;;;;5072255;28;20214;-61
2021/03/17 11:10:55;;;;;;;8.80;5.27;;;5.50;99.90;;;;;;5072221;28;20261;-61
2021/03/17 11:13:32;;;;;;;9.20;5.27;;;5.60;99.90;;;;;;5073064;28;20317;-61
2021/03/17 11:16:04;;;;;;;11.53;5.47;;;5.60;99.90;;;;;;5078355;28;20204;-61
2021/03/17 11:18:33;;;;;;;9.30;5.37;;;5.80;99.90;;;;;;5075227;28;20252;-62
2021/03/17 11:21:04;;;;;;;10.10;6.07;;;6.20;99.90;;;;;;5092342;28;20250;-61
2021/03/17 11:23:33;;;;;;;9.93;5.60;;;6.50;99.90;;;;;;5092072;28;20615;-62
2021/03/17 11:26:01;;;;;;;11.40;6.10;;;6.50;99.90;;;;;;5082056;28;20217;-62
2021/03/17 11:28:37;;;;;;;10.53;5.03;;;6.50;99.90;;;;;;5080710;28;20210;-61
2021/03/17 11:31:07;;;;;;;9.10;5.33;;;6.20;99.90;;;;;;5087101;28;20214;-61
2021/03/17 11:33:34;;;;;;;9.40;5.50;;;6.10;99.90;;;;;;5085475;28;20203;-61
2021/03/17 11:36:05;;;;;;;10.27;5.53;;;6.20;99.90;;;;;;5072954;28;20294;-60
2021/03/17 11:38:33;;;;;;;7.43;5.43;;;6.10;99.90;;;;;;5074971;28;20195;-60
2021/03/17 11:41:01;;;;;;;9.57;6.10;;;6.00;99.90;;;;;;5083434;28;20253;-60
2021/03/17 11:43:31;;;;;;;11.07;6.40;;;5.80;99.90;;;;;;5073798;28;20659;-60
2021/03/17 11:45:59;;;;;;;10.43;5.90;;;6.00;99.90;;;;;;5079199;28;20220;-61
2021/03/17 11:48:27;;;;;;;10.67;6.00;;;6.40;99.90;;;;;;5080864;28;20212;-61
2021/03/17 11:50:56;;;;;;;7.73;5.50;;;6.90;99.90;;;;;;5087764;28;20196;-60
2021/03/17 11:53:23;;;;;;;11.70;5.30;;;7.20;99.90;;;;;;5080605;28;20305;-61
2021/03/17 11:55:51;;;;;;;11.90;5.57;;;7.40;99.90;;;;;;5070827;28;20529;-60
2021/03/17 11:58:18;;;;;;;8.80;5.03;;;7.30;99.90;;;;;;5070898;28;20208;-61
2021/03/17 12:00:46;;;;;;;12.97;5.93;;;7.10;99.90;;;;;;5070929;28;20236;-60
2021/03/17 12:03:15;;;;;;;10.90;5.73;;;6.90;99.90;;;;;;5071392;28;20209;-60
2021/03/17 12:05:43;;;;;;;8.00;5.30;;;6.90;99.90;;;;;;5071504;28;20207;-60
2021/03/17 12:08:12;;;;;;;9.63;5.20;;;7.00;99.90;;;;;;5071595;28;20208;-61
2021/03/17 12:10:40;;;;;;;11.23;5.63;;;7.10;99.90;;;;;;5070949;28;20204;-61
2021/03/17 12:13:07;;;;;;;7.77;4.83;;;7.10;99.90;;;;;;5075770;28;20233;-59
2021/03/17 12:15:34;;;;;;;9.83;5.23;;;7.20;99.90;;;;;;5075690;28;20209;-60
2021/03/17 12:18:03;;;;;;;8.07;4.57;;;7.00;99.90;;;;;;5071220;28;20235;-59
2021/03/17 12:20:32;;;;;;;7.13;4.30;;;7.00;99.90;;;;;;5090490;28;20223;-62
2021/03/17 12:23:12;;;;;;;8.77;4.70;;;7.10;99.90;;;;;;5091399;28;20246;-61
2021/03/17 12:25:39;;;;;;;10.07;4.33;;;7.10;99.90;;;;;;5090472;28;20200;-61
2021/03/17 12:28:06;;;;;;;7.57;4.10;;;7.20;99.90;;;;;;5091035;28;20725;-61
2021/03/17 12:30:33;;;;;;;8.10;4.80;;;7.40;99.90;;;;;;5091112;28;20200;-59
2021/03/17 12:33:02;;;;;;;6.70;4.10;;;7.60;99.90;;;;;;5091035;28;20230;-60
2021/03/17 12:35:28;;;;;;;7.47;4.43;;;7.60;99.90;;;;;;5090565;28;20666;-60
2021/03/17 12:37:56;;;;;;;8.17;3.40;;;7.70;99.90;;;;;;5085874;28;20223;-62
2021/03/17 12:40:27;;;;;;;6.07;3.70;;;7.40;99.90;;;;;;5075928;28;20728;-61
2021/03/17 12:42:55;;;;;;;6.10;3.67;;;7.40;99.90;;;;;;5071542;28;20296;-62
2021/03/17 12:45:27;;;;;;;7.80;3.90;;;7.50;99.90;;;;;;5070710;28;20271;-62
2021/03/17 12:47:54;;;;;;;9.00;4.47;;;7.60;99.90;;;;;;5070557;28;20228;-63
2021/03/17 12:50:24;;;;;;;8.97;4.53;;;7.60;99.90;;;;;;5070540;28;20269;-62
2021/03/17 12:52:51;;;;;;;10.03;4.43;;;7.50;99.90;;;;;;5070080;28;20299;-61
2021/03/17 12:55:19;;;;;;;9.70;4.03;;;7.60;99.90;;;;;;5076023;28;20200;-59
2021/03/17 12:57:46;;;;;;;6.30;3.60;;;7.50;99.90;;;;;;5079391;28;20302;-60
2021/03/17 13:00:16;;;;;;;6.60;3.57;;;7.60;99.90;;;;;;5071854;28;20343;-60
2021/03/17 13:02:43;;;;;;;6.10;3.40;;;7.70;99.90;;;;;;5079260;28;20840;-59
2021/03/17 13:05:12;;;;;;;5.53;3.40;;;7.80;99.90;;;;;;5081780;28;20652;-60
2021/03/17 13:07:41;;;;;;;6.90;3.57;;;8.00;99.90;;;;;;5079630;28;20204;-62
2021/03/17 13:10:11;;;;;;;6.63;3.70;;;7.90;99.90;;;;;;5090264;28;20208;-61
2021/03/17 13:12:38;;;;;;;8.10;3.37;;;8.10;99.90;;;;;;5090473;28;20623;-60